Terminal Aerodrome Forecast
Issued by NWS

Home | Current Version | Previous Version | Text Only | Print | Product List | Glossary On
Versions: 1 2 3 4 5 6 7 8 9 10 11 12 13 14 15 16 17 18 19 20 21 22 23 24 25 26 27 28
000
FTUS43 KAPX 291000 AAA
TAFPLN
TAF AMD
KPLN 291055Z 2911/3006 29005KT P6SM BKN012 BKN060
      TEMPO 2913/2915 SCT040
     FM291500 28010KT P6SM SCT050
     FM292300 33008KT P6SM SCT060
     FM300200 32004KT P6SM FEW050 SCT250=

USA.gov is the U.S. government's official web portal to all federal, state and local government web resources and services.